createdAt,value
2023-03-23T16:00:20.703Z,4.63
2023-03-23T16:02:50.389Z,3.35
2023-03-23T16:05:18.590Z,6.80
2023-03-23T16:07:46.528Z,6.28
2023-03-23T16:10:18.405Z,5.05
2023-03-23T16:12:46.855Z,3.47
2023-03-23T16:15:17.213Z,4.45
2023-03-23T16:17:46.676Z,4.18
2023-03-23T16:20:16.258Z,2.95
2023-03-23T16:22:44.437Z,6.00
2023-03-23T16:25:13.454Z,4.18
2023-03-23T16:27:42.393Z,3.50
2023-03-23T16:30:19.712Z,3.20
2023-03-23T16:32:47.956Z,2.50
2023-03-23T16:35:17.311Z,1.90
2023-03-23T16:37:49.756Z,1.73
2023-03-23T16:40:18.895Z,2.22
2023-03-23T16:42:47.173Z,4.45
2023-03-23T16:45:17.821Z,2.20
2023-03-23T16:47:45.843Z,3.53
2023-03-23T16:50:16.255Z,4.43
2023-03-23T16:52:47.503Z,2.00
2023-03-23T16:55:17.714Z,2.88
2023-03-23T16:57:45.658Z,2.90
2023-03-23T17:00:20.279Z,2.90
2023-03-23T17:02:50.515Z,1.92
2023-03-23T17:05:19.770Z,2.28
2023-03-23T17:07:48.638Z,2.65
2023-03-23T17:10:17.544Z,2.67
2023-03-23T17:12:45.807Z,2.95
2023-03-23T17:15:13.948Z,4.43
2023-03-23T17:17:43.410Z,2.58
2023-03-23T17:20:12.581Z,2.63
2023-03-23T17:22:42.020Z,2.97
2023-03-23T17:25:11.123Z,2.08
2023-03-23T17:27:40.619Z,2.00
2023-03-23T17:30:10.922Z,4.28
2023-03-23T17:32:39.354Z,5.47
2023-03-23T17:35:09.229Z,3.10
2023-03-23T17:37:37.935Z,5.82
2023-03-23T17:40:10.165Z,10.27
2023-03-23T17:42:38.583Z,3.65
2023-03-23T17:45:08.453Z,2.55
2023-03-23T17:47:36.546Z,4.05
2023-03-23T17:50:12.245Z,5.20
2023-03-23T17:52:43.361Z,4.63
2023-03-23T17:55:11.775Z,2.88
2023-03-23T17:57:40.041Z,5.55
2023-03-23T18:00:09.377Z,3.70
2023-03-23T18:02:38.084Z,4.68
2023-03-23T18:05:09.260Z,2.45
2023-03-23T18:07:37.506Z,4.22
2023-03-23T18:10:11.865Z,3.42
2023-03-23T18:12:40.444Z,3.80
2023-03-23T18:15:09.187Z,2.70
2023-03-23T18:17:37.573Z,2.75
2023-03-23T18:20:07.447Z,3.25
2023-03-23T18:22:35.538Z,5.93
2023-03-23T18:25:05.177Z,4.30
2023-03-23T18:27:35.089Z,3.63
2023-03-23T18:30:03.795Z,3.88
2023-03-23T18:32:31.786Z,3.00
2023-03-23T18:34:59.719Z,5.47
2023-03-23T18:37:27.769Z,5.68
2023-03-23T18:39:56.293Z,4.05
2023-03-23T18:42:24.323Z,5.88
2023-03-23T18:44:54.936Z,3.65
2023-03-23T18:47:23.062Z,4.28
2023-03-23T18:49:51.978Z,2.40
2023-03-23T18:52:20.008Z,7.75
2023-03-23T18:54:47.907Z,3.72
2023-03-23T18:57:18.079Z,4.47
2023-03-23T18:59:46.089Z,2.85
2023-03-23T19:02:18.330Z,5.60
2023-03-23T19:04:46.824Z,2.83
2023-03-23T19:07:16.427Z,5.28
2023-03-23T19:09:46.151Z,7.43
2023-03-23T19:12:15.676Z,3.35
2023-03-23T19:14:43.996Z,7.53
2023-03-23T19:17:12.250Z,5.40
2023-03-23T19:19:43.188Z,3.25
2023-03-23T19:22:13.071Z,4.65
2023-03-23T19:24:40.959Z,6.35
2023-03-23T19:27:09.416Z,4.25
2023-03-23T19:29:37.391Z,5.18
2023-03-23T19:32:05.662Z,7.47
2023-03-23T19:34:33.760Z,5.57
2023-03-23T19:37:06.009Z,6.93
2023-03-23T19:39:38.542Z,4.72
2023-03-23T19:42:07.201Z,4.65
2023-03-23T19:44:35.664Z,5.10
2023-03-23T19:47:03.765Z,4.70
2023-03-23T19:49:31.762Z,5.55
2023-03-23T19:52:07.131Z,6.05
2023-03-23T19:54:40.909Z,11.20
2023-03-23T19:57:10.090Z,5.75
2023-03-23T19:59:38.631Z,8.30
2023-03-23T20:02:08.206Z,7.72
2023-03-23T20:04:36.587Z,7.32
2023-03-23T20:07:07.431Z,8.75
2023-03-23T20:09:35.897Z,9.30
2023-03-23T20:12:06.318Z,10.02
2023-03-23T20:14:34.828Z,12.70
2023-03-23T20:17:03.737Z,9.20
2023-03-23T20:22:01.790Z,9.23
2023-03-23T20:24:29.819Z,8.50
2023-03-23T20:26:57.964Z,8.90
2023-03-23T20:29:31.349Z,10.65
2023-03-23T20:31:59.586Z,15.05
2023-03-23T20:34:31.201Z,11.52
2023-03-23T20:37:00.320Z,7.80
2023-03-23T20:39:30.835Z,18.08
2023-03-23T20:42:01.973Z,13.25
2023-03-23T20:44:35.039Z,15.05
2023-03-23T20:47:03.898Z,14.48
2023-03-23T20:49:32.045Z,13.18
2023-03-23T20:52:00.098Z,13.93
2023-03-23T20:54:28.442Z,10.10
2023-03-23T20:56:58.514Z,13.65
2023-03-23T20:59:27.225Z,11.35
2023-03-23T21:01:56.533Z,10.77
2023-03-23T21:04:27.351Z,11.45
2023-03-23T21:06:56.874Z,14.93
2023-03-23T21:09:25.884Z,12.07
2023-03-23T21:11:54.250Z,14.35
2023-03-23T21:14:22.153Z,14.63
2023-03-23T21:16:50.316Z,16.60
2023-03-23T21:19:20.753Z,10.88
2023-03-23T21:21:56.772Z,13.90
2023-03-23T21:24:28.154Z,14.13
2023-03-23T21:26:57.207Z,11.68
2023-03-23T21:29:25.284Z,14.05
2023-03-23T21:32:07.030Z,12.27
2023-03-23T21:34:38.804Z,10.32
2023-03-23T21:37:06.924Z,14.75
2023-03-23T21:39:34.935Z,12.80
2023-03-23T21:42:06.859Z,12.00
2023-03-23T21:44:35.903Z,11.77
2023-03-23T21:47:04.753Z,16.63
2023-03-23T21:49:32.770Z,10.82
2023-03-23T21:52:02.500Z,16.23
2023-03-23T21:54:31.988Z,13.52
2023-03-23T21:57:00.436Z,14.63
2023-03-23T21:59:29.024Z,15.82
2023-03-23T22:01:58.503Z,15.40
2023-03-23T22:04:28.145Z,13.57
2023-03-23T22:06:56.848Z,16.38
2023-03-23T22:09:26.339Z,14.07
2023-03-23T22:11:54.494Z,13.40
2023-03-23T22:14:22.607Z,15.48
2023-03-23T22:16:50.706Z,14.48
2023-03-23T22:19:18.728Z,14.02
2023-03-23T22:21:46.923Z,12.35
2023-03-23T22:24:15.118Z,15.25
2023-03-23T22:26:44.485Z,12.95
2023-03-23T22:29:12.928Z,13.82
2023-03-23T22:31:41.501Z,17.45
2023-03-23T22:34:10.031Z,15.95
2023-03-23T22:36:38.869Z,17.10
2023-03-23T22:39:08.282Z,16.83
2023-03-23T22:41:38.294Z,18.27
2023-03-23T22:44:12.671Z,16.25
2023-03-23T22:46:40.769Z,15.40
2023-03-23T22:49:09.104Z,19.52
2023-03-23T22:51:38.011Z,16.85
2023-03-23T22:54:07.176Z,14.95
2023-03-23T22:56:37.185Z,15.02
2023-03-23T22:59:05.474Z,16.08
2023-03-23T23:01:35.747Z,17.98
2023-03-23T23:04:04.545Z,17.15
2023-03-23T23:06:32.541Z,16.50
2023-03-23T23:09:00.565Z,17.20
2023-03-23T23:11:28.635Z,15.05
2023-03-23T23:13:56.684Z,15.05
2023-03-23T23:16:26.409Z,14.40
2023-03-23T23:18:56.203Z,14.80
2023-03-23T23:21:26.739Z,19.45
2023-03-23T23:23:55.033Z,17.38
2023-03-23T23:26:23.763Z,18.33
2023-03-23T23:28:51.962Z,15.05
2023-03-23T23:31:26.156Z,16.63
2023-03-23T23:33:57.562Z,16.50
2023-03-23T23:36:29.947Z,19.17
2023-03-23T23:39:00.597Z,17.05
2023-03-23T23:41:30.419Z,18.50
2023-03-23T23:43:59.514Z,14.68
2023-03-23T23:46:28.744Z,13.57
2023-03-23T23:48:58.484Z,13.73
2023-03-23T23:51:27.322Z,15.90
2023-03-23T23:53:58.954Z,17.75
2023-03-23T23:56:27.843Z,12.90
2023-03-23T23:58:56.103Z,12.63
